Archival Weather

Chicago O'Hare International

Chicago, Illinois (KORD)

Report from: Tuesday, February 27, 2024 2:51 AM CST
Current time: Wednesday, May 29, 2024 8:03 PM CDT

Current weather – Weather history – Daily summaries
Weather forecast

Temperature14.4°C (57.9°F)
Dew point12.2°C (54.0°F)
Winds 14 kts (7.2 m/s, 16.1 mph) South-Southwest (200°)
Wind gusts 23 kts (11.8 m/s, 26.5 mph)
Peak wind 27 kts (13.9 m/s, 31.1 mph) South-Southwest (210°) at 07:55
Visibility10 mi. (16.1 km)
Clouds Scattered clouds 1,400 ft. (427 m)
Ceiling: Broken clouds 25,000 ft. (7,620 m)
Altimeter29.42 in.Hg (996 mB)
Relative humidity87 %
Density altitude719 ft. (219 m)
Sea-level pressure99.6 kPa (996 mB, 29.41 in.Hg)
Remarks Automated weather observing station with precipitation discriminator
Pressure falling more quickly
Flight conditions Visual Meteorological Conditions
Raw dataKORD 270851Z 20014G23KT 10SM SCT014 BKN250 14/12 A2942 RMK AO2 PK WND 21027/0755 SLP959 T01440122 58011
An error has occurred. This application may no longer respond until reloaded. Reload 🗙